sensor_id;sensor_type;location;lat;lon;timestamp;temperature;humidity
64226;DHT22;50545;56.064;26.178;2023-06-14T00:01:49;8.20;99.70
64226;DHT22;50545;56.064;26.178;2023-06-14T00:04:16;8.10;99.80
64226;DHT22;50545;56.064;26.178;2023-06-14T00:06:44;8.10;99.80
64226;DHT22;50545;56.064;26.178;2023-06-14T00:09:12;8.10;99.60
64226;DHT22;50545;56.064;26.178;2023-06-14T00:11:44;8.00;99.50
64226;DHT22;50545;56.064;26.178;2023-06-14T00:14:12;7.90;99.60
64226;DHT22;50545;56.064;26.178;2023-06-14T00:16:40;7.90;99.60
64226;DHT22;50545;56.064;26.178;2023-06-14T00:19:09;7.80;99.60
64226;DHT22;50545;56.064;26.178;2023-06-14T00:21:38;7.80;99.50
64226;DHT22;50545;56.064;26.178;2023-06-14T00:24:05;7.70;99.60
64226;DHT22;50545;56.064;26.178;2023-06-14T00:26:33;7.60;99.70
64226;DHT22;50545;56.064;26.178;2023-06-14T00:29:00;7.60;99.80
64226;DHT22;50545;56.064;26.178;2023-06-14T00:31:27;7.60;99.90
64226;DHT22;50545;56.064;26.178;2023-06-14T00:33:54;7.60;99.90
64226;DHT22;50545;56.064;26.178;2023-06-14T00:36:22;7.60;99.90
64226;DHT22;50545;56.064;26.178;2023-06-14T00:38:49;7.70;99.90
64226;DHT22;50545;56.064;26.178;2023-06-14T00:41:16;7.60;99.90
64226;DHT22;50545;56.064;26.178;2023-06-14T00:43:43;7.60;99.90
64226;DHT22;50545;56.064;26.178;2023-06-14T00:46:11;7.60;99.90
64226;DHT22;50545;56.064;26.178;2023-06-14T00:48:38;7.50;99.90
64226;DHT22;50545;56.064;26.178;2023-06-14T00:51:07;7.50;99.90
64226;DHT22;50545;56.064;26.178;2023-06-14T00:53:34;7.40;99.90
64226;DHT22;50545;56.064;26.178;2023-06-14T00:56:03;7.40;99.90
64226;DHT22;50545;56.064;26.178;2023-06-14T00:58:31;7.40;99.90
64226;DHT22;50545;56.064;26.178;2023-06-14T01:00:59;7.30;99.90
64226;DHT22;50545;56.064;26.178;2023-06-14T01:03:26;7.30;99.90
64226;DHT22;50545;56.064;26.178;2023-06-14T01:09:03;7.10;99.80
64226;DHT22;50545;56.064;26.178;2023-06-14T01:11:45;7.10;99.90
64226;DHT22;50545;56.064;26.178;2023-06-14T01:14:16;7.00;99.90
64226;DHT22;50545;56.064;26.178;2023-06-14T01:16:45;6.90;99.90
64226;DHT22;50545;56.064;26.178;2023-06-14T01:19:14;6.90;99.90
64226;DHT22;50545;56.064;26.178;2023-06-14T01:21:42;6.90;99.90
64226;DHT22;50545;56.064;26.178;2023-06-14T01:24:10;6.80;99.90
64226;DHT22;50545;56.064;26.178;2023-06-14T01:26:38;6.80;99.90
64226;DHT22;50545;56.064;26.178;2023-06-14T01:29:15;6.80;99.90
64226;DHT22;50545;56.064;26.178;2023-06-14T01:31:46;6.80;99.90
64226;DHT22;50545;56.064;26.178;2023-06-14T01:34:14;6.70;99.90
64226;DHT22;50545;56.064;26.178;2023-06-14T01:36:44;6.80;99.90
64226;DHT22;50545;56.064;26.178;2023-06-14T01:39:14;6.80;99.90
64226;DHT22;50545;56.064;26.178;2023-06-14T01:41:43;6.80;99.90
64226;DHT22;50545;56.064;26.178;2023-06-14T01:44:12;6.80;99.90
64226;DHT22;50545;56.064;26.178;2023-06-14T01:46:41;6.80;99.90
64226;DHT22;50545;56.064;26.178;2023-06-14T01:49:10;6.80;99.90
64226;DHT22;50545;56.064;26.178;2023-06-14T01:51:37;6.80;99.90
64226;DHT22;50545;56.064;26.178;2023-06-14T01:54:04;6.80;99.90
64226;DHT22;50545;56.064;26.178;2023-06-14T01:56:32;6.80;99.90
64226;DHT22;50545;56.064;26.178;2023-06-14T01:58:59;6.70;99.90
64226;DHT22;50545;56.064;26.178;2023-06-14T02:01:26;6.80;99.90
64226;DHT22;50545;56.064;26.178;2023-06-14T02:03:54;6.80;99.90
64226;DHT22;50545;56.064;26.178;2023-06-14T02:06:21;6.70;99.90
64226;DHT22;50545;56.064;26.178;2023-06-14T02:08:48;6.70;99.90
64226;DHT22;50545;56.064;26.178;2023-06-14T02:11:15;6.70;99.90
64226;DHT22;50545;56.064;26.178;2023-06-14T02:13:42;6.70;99.90
64226;DHT22;50545;56.064;26.178;2023-06-14T02:16:10;6.70;99.90
64226;DHT22;50545;56.064;26.178;2023-06-14T02:18:37;6.70;99.90
64226;DHT22;50545;56.064;26.178;2023-06-14T02:21:04;6.70;99.90
64226;DHT22;50545;56.064;26.178;2023-06-14T02:23:31;6.70;99.90
64226;DHT22;50545;56.064;26.178;2023-06-14T02:26:01;6.70;99.90
64226;DHT22;50545;56.064;26.178;2023-06-14T02:28:30;6.70;99.90
64226;DHT22;50545;56.064;26.178;2023-06-14T02:30:57;6.80;99.90
64226;DHT22;50545;56.064;26.178;2023-06-14T02:33:24;6.80;99.90
64226;DHT22;50545;56.064;26.178;2023-06-14T02:35:52;6.80;99.90
64226;DHT22;50545;56.064;26.178;2023-06-14T02:38:19;6.80;99.90
64226;DHT22;50545;56.064;26.178;2023-06-14T02:40:47;6.80;99.90
64226;DHT22;50545;56.064;26.178;2023-06-14T02:43:14;6.90;99.90
64226;DHT22;50545;56.064;26.178;2023-06-14T02:45:44;6.90;99.90
64226;DHT22;50545;56.064;26.178;2023-06-14T02:48:11;6.90;99.90
64226;DHT22;50545;56.064;26.178;2023-06-14T02:50:39;7.00;99.90
64226;DHT22;50545;56.064;26.178;2023-06-14T02:53:06;7.00;99.90
64226;DHT22;50545;56.064;26.178;2023-06-14T02:55:34;7.10;99.90
64226;DHT22;50545;56.064;26.178;2023-06-14T02:58:07;7.10;99.90
64226;DHT22;50545;56.064;26.178;2023-06-14T03:00:34;7.20;99.90
64226;DHT22;50545;56.064;26.178;2023-06-14T03:03:03;7.30;99.90
64226;DHT22;50545;56.064;26.178;2023-06-14T03:05:31;7.40;99.90
64226;DHT22;50545;56.064;26.178;2023-06-14T03:07:59;7.50;99.90
64226;DHT22;50545;56.064;26.178;2023-06-14T03:10:27;7.50;99.90
64226;DHT22;50545;56.064;26.178;2023-06-14T03:12:56;7.60;99.90
64226;DHT22;50545;56.064;26.178;2023-06-14T03:15:23;7.70;99.90
64226;DHT22;50545;56.064;26.178;2023-06-14T03:17:51;7.80;99.90
64226;DHT22;50545;56.064;26.178;2023-06-14T03:20:20;7.90;99.90
64226;DHT22;50545;56.064;26.178;2023-06-14T03:22:47;8.00;99.90
64226;DHT22;50545;56.064;26.178;2023-06-14T03:25:15;8.10;99.90
64226;DHT22;50545;56.064;26.178;2023-06-14T03:27:42;8.30;99.90
64226;DHT22;50545;56.064;26.178;2023-06-14T03:30:09;8.40;99.90
64226;DHT22;50545;56.064;26.178;2023-06-14T03:32:37;8.50;99.90
64226;DHT22;50545;56.064;26.178;2023-06-14T03:35:04;8.70;99.90
64226;DHT22;50545;56.064;26.178;2023-06-14T03:37:32;8.80;99.90
64226;DHT22;50545;56.064;26.178;2023-06-14T03:39:59;8.90;99.90
64226;DHT22;50545;56.064;26.178;2023-06-14T03:42:27;9.00;99.90
64226;DHT22;50545;56.064;26.178;2023-06-14T03:44:55;9.20;99.90
64226;DHT22;50545;56.064;26.178;2023-06-14T03:47:22;9.30;99.90
64226;DHT22;50545;56.064;26.178;2023-06-14T03:49:50;9.40;99.90
64226;DHT22;50545;56.064;26.178;2023-06-14T03:52:17;9.60;99.90
64226;DHT22;50545;56.064;26.178;2023-06-14T03:54:44;9.70;99.90
64226;DHT22;50545;56.064;26.178;2023-06-14T03:57:16;9.90;99.90
64226;DHT22;50545;56.064;26.178;2023-06-14T03:59:43;10.00;99.90
64226;DHT22;50545;56.064;26.178;2023-06-14T04:02:10;10.20;99.90
64226;DHT22;50545;56.064;26.178;2023-06-14T04:04:37;10.30;99.90
64226;DHT22;50545;56.064;26.178;2023-06-14T04:07:05;10.40;99.90
64226;DHT22;50545;56.064;26.178;2023-06-14T04:09:32;10.60;99.90
64226;DHT22;50545;56.064;26.178;2023-06-14T04:12:00;10.70;99.90
64226;DHT22;50545;56.064;26.178;2023-06-14T04:14:27;10.80;99.90
64226;DHT22;50545;56.064;26.178;2023-06-14T04:16:54;11.00;98.90
64226;DHT22;50545;56.064;26.178;2023-06-14T04:19:22;11.10;98.60
64226;DHT22;50545;56.064;26.178;2023-06-14T04:21:49;11.20;98.10
64226;DHT22;50545;56.064;26.178;2023-06-14T04:24:16;11.30;97.70
64226;DHT22;50545;56.064;26.178;2023-06-14T04:26:44;11.40;97.70
64226;DHT22;50545;56.064;26.178;2023-06-14T04:29:12;11.50;97.10
64226;DHT22;50545;56.064;26.178;2023-06-14T04:31:43;11.70;96.90
64226;DHT22;50545;56.064;26.178;2023-06-14T04:34:12;11.80;96.70
64226;DHT22;50545;56.064;26.178;2023-06-14T04:36:45;11.90;97.30
64226;DHT22;50545;56.064;26.178;2023-06-14T04:39:20;12.00;97.40
64226;DHT22;50545;56.064;26.178;2023-06-14T04:41:48;12.10;97.00
64226;DHT22;50545;56.064;26.178;2023-06-14T04:44:19;12.20;97.50
64226;DHT22;50545;56.064;26.178;2023-06-14T04:46:47;12.30;97.30
64226;DHT22;50545;56.064;26.178;2023-06-14T04:49:17;12.40;97.60
64226;DHT22;50545;56.064;26.178;2023-06-14T04:51:45;12.50;97.30
64226;DHT22;50545;56.064;26.178;2023-06-14T04:54:14;12.60;96.50
64226;DHT22;50545;56.064;26.178;2023-06-14T04:56:42;12.70;95.90
64226;DHT22;50545;56.064;26.178;2023-06-14T04:59:09;12.80;95.70
64226;DHT22;50545;56.064;26.178;2023-06-14T05:01:38;12.90;94.70
64226;DHT22;50545;56.064;26.178;2023-06-14T05:04:06;13.00;94.20
64226;DHT22;50545;56.064;26.178;2023-06-14T05:06:33;13.10;93.80
64226;DHT22;50545;56.064;26.178;2023-06-14T05:09:00;13.30;94.00
64226;DHT22;50545;56.064;26.178;2023-06-14T05:11:28;13.40;94.00
64226;DHT22;50545;56.064;26.178;2023-06-14T05:13:56;13.50;93.50
64226;DHT22;50545;56.064;26.178;2023-06-14T05:16:25;13.70;93.50
64226;DHT22;50545;56.064;26.178;2023-06-14T05:18:56;13.90;92.10
64226;DHT22;50545;56.064;26.178;2023-06-14T05:21:24;14.10;92.30
64226;DHT22;50545;56.064;26.178;2023-06-14T05:23:52;14.20;91.80
64226;DHT22;50545;56.064;26.178;2023-06-14T05:26:20;14.40;91.10
64226;DHT22;50545;56.064;26.178;2023-06-14T05:28:50;14.60;90.90
64226;DHT22;50545;56.064;26.178;2023-06-14T05:31:19;14.70;90.70
64226;DHT22;50545;56.064;26.178;2023-06-14T05:33:47;14.80;90.40
64226;DHT22;50545;56.064;26.178;2023-06-14T05:36:14;15.00;90.00
64226;DHT22;50545;56.064;26.178;2023-06-14T05:38:41;15.20;89.60
64226;DHT22;50545;56.064;26.178;2023-06-14T05:41:08;15.30;89.20
64226;DHT22;50545;56.064;26.178;2023-06-14T05:43:35;15.40;87.80
64226;DHT22;50545;56.064;26.178;2023-06-14T05:46:03;15.50;88.70
64226;DHT22;50545;56.064;26.178;2023-06-14T05:48:30;15.60;87.30
64226;DHT22;50545;56.064;26.178;2023-06-14T05:51:00;15.80;87.00
64226;DHT22;50545;56.064;26.178;2023-06-14T05:53:27;15.90;87.20
64226;DHT22;50545;56.064;26.178;2023-06-14T05:55:54;16.00;86.50
64226;DHT22;50545;56.064;26.178;2023-06-14T05:58:22;16.20;84.70
64226;DHT22;50545;56.064;26.178;2023-06-14T06:00:49;16.30;84.60
64226;DHT22;50545;56.064;26.178;2023-06-14T06:03:17;16.40;84.60
64226;DHT22;50545;56.064;26.178;2023-06-14T06:05:45;16.50;83.60
64226;DHT22;50545;56.064;26.178;2023-06-14T06:08:12;16.70;82.90
64226;DHT22;50545;56.064;26.178;2023-06-14T06:10:40;16.80;82.60
64226;DHT22;50545;56.064;26.178;2023-06-14T06:13:07;16.90;81.60
64226;DHT22;50545;56.064;26.178;2023-06-14T06:15:37;17.10;82.20
64226;DHT22;50545;56.064;26.178;2023-06-14T06:18:05;17.20;79.20
64226;DHT22;50545;56.064;26.178;2023-06-14T06:20:32;17.40;79.50
64226;DHT22;50545;56.064;26.178;2023-06-14T06:22:59;17.50;79.60
64226;DHT22;50545;56.064;26.178;2023-06-14T06:25:27;17.60;79.20
64226;DHT22;50545;56.064;26.178;2023-06-14T06:27:55;17.90;78.70
64226;DHT22;50545;56.064;26.178;2023-06-14T06:30:24;18.00;76.10
64226;DHT22;50545;56.064;26.178;2023-06-14T06:32:52;18.20;75.40
64226;DHT22;50545;56.064;26.178;2023-06-14T06:35:20;18.30;73.60
64226;DHT22;50545;56.064;26.178;2023-06-14T06:37:47;18.50;75.30
64226;DHT22;50545;56.064;26.178;2023-06-14T06:40:14;18.60;73.50
64226;DHT22;50545;56.064;26.178;2023-06-14T06:42:42;18.70;73.40
64226;DHT22;50545;56.064;26.178;2023-06-14T06:45:09;18.90;70.70
64226;DHT22;50545;56.064;26.178;2023-06-14T06:47:36;19.00;70.60
64226;DHT22;50545;56.064;26.178;2023-06-14T06:50:04;19.20;71.90
64226;DHT22;50545;56.064;26.178;2023-06-14T06:52:33;19.40;68.10
64226;DHT22;50545;56.064;26.178;2023-06-14T06:55:00;19.60;72.30
64226;DHT22;50545;56.064;26.178;2023-06-14T06:57:29;19.80;70.80
64226;DHT22;50545;56.064;26.178;2023-06-14T06:59:57;20.00;62.40
64226;DHT22;50545;56.064;26.178;2023-06-14T07:02:24;20.10;57.00
64226;DHT22;50545;56.064;26.178;2023-06-14T07:04:52;20.30;57.10
64226;DHT22;50545;56.064;26.178;2023-06-14T07:07:19;20.40;54.90
64226;DHT22;50545;56.064;26.178;2023-06-14T07:09:47;20.60;54.60
64226;DHT22;50545;56.064;26.178;2023-06-14T07:12:14;20.80;53.20
64226;DHT22;50545;56.064;26.178;2023-06-14T07:14:41;21.00;56.20
64226;DHT22;50545;56.064;26.178;2023-06-14T07:17:08;21.30;55.30
64226;DHT22;50545;56.064;26.178;2023-06-14T07:19:36;21.50;51.20
64226;DHT22;50545;56.064;26.178;2023-06-14T07:22:03;21.70;48.60
64226;DHT22;50545;56.064;26.178;2023-06-14T07:24:32;22.00;48.80
64226;DHT22;50545;56.064;26.178;2023-06-14T07:26:59;22.10;49.30
64226;DHT22;50545;56.064;26.178;2023-06-14T07:29:26;22.30;47.30
64226;DHT22;50545;56.064;26.178;2023-06-14T07:31:54;22.40;46.70
64226;DHT22;50545;56.064;26.178;2023-06-14T07:34:21;22.50;45.40
64226;DHT22;50545;56.064;26.178;2023-06-14T07:36:48;22.50;45.80
64226;DHT22;50545;56.064;26.178;2023-06-14T07:39:15;22.60;46.40
64226;DHT22;50545;56.064;26.178;2023-06-14T07:41:43;22.70;46.90
64226;DHT22;50545;56.064;26.178;2023-06-14T07:44:10;22.80;48.10
64226;DHT22;50545;56.064;26.178;2023-06-14T07:46:37;23.00;46.30
64226;DHT22;50545;56.064;26.178;2023-06-14T07:49:05;23.10;45.00
64226;DHT22;50545;56.064;26.178;2023-06-14T07:51:33;23.20;48.00
64226;DHT22;50545;56.064;26.178;2023-06-14T07:54:00;23.30;44.90
64226;DHT22;50545;56.064;26.178;2023-06-14T07:56:29;23.30;44.50
64226;DHT22;50545;56.064;26.178;2023-06-14T07:58:56;23.50;48.40
64226;DHT22;50545;56.064;26.178;2023-06-14T08:01:23;23.70;46.50
64226;DHT22;50545;56.064;26.178;2023-06-14T08:03:52;23.90;47.00
64226;DHT22;50545;56.064;26.178;2023-06-14T08:06:19;24.00;46.10
64226;DHT22;50545;56.064;26.178;2023-06-14T08:08:47;24.10;46.40
64226;DHT22;50545;56.064;26.178;2023-06-14T08:11:14;24.20;41.50
64226;DHT22;50545;56.064;26.178;2023-06-14T08:13:41;24.10;42.30
64226;DHT22;50545;56.064;26.178;2023-06-14T08:16:09;24.00;44.10
64226;DHT22;50545;56.064;26.178;2023-06-14T08:18:37;24.00;43.30
64226;DHT22;50545;56.064;26.178;2023-06-14T08:21:05;24.00;40.80
64226;DHT22;50545;56.064;26.178;2023-06-14T08:23:32;24.10;41.80
64226;DHT22;50545;56.064;26.178;2023-06-14T08:25:59;24.10;42.10
64226;DHT22;50545;56.064;26.178;2023-06-14T08:28:28;24.10;42.20
64226;DHT22;50545;56.064;26.178;2023-06-14T08:30:55;24.20;42.10
64226;DHT22;50545;56.064;26.178;2023-06-14T08:33:23;24.30;42.20
64226;DHT22;50545;56.064;26.178;2023-06-14T08:35:50;24.30;43.70
64226;DHT22;50545;56.064;26.178;2023-06-14T08:38:17;24.40;42.10
64226;DHT22;50545;56.064;26.178;2023-06-14T08:40:48;24.50;44.20
64226;DHT22;50545;56.064;26.178;2023-06-14T08:43:17;24.70;45.10
64226;DHT22;50545;56.064;26.178;2023-06-14T08:45:46;24.90;41.70
64226;DHT22;50545;56.064;26.178;2023-06-14T08:48:16;25.00;43.70
64226;DHT22;50545;56.064;26.178;2023-06-14T08:50:48;25.10;40.70
64226;DHT22;50545;56.064;26.178;2023-06-14T08:53:19;25.10;40.30
64226;DHT22;50545;56.064;26.178;2023-06-14T08:55:47;25.10;40.30
64226;DHT22;50545;56.064;26.178;2023-06-14T08:58:15;25.10;39.40
64226;DHT22;50545;56.064;26.178;2023-06-14T09:00:43;25.10;39.80
64226;DHT22;50545;56.064;26.178;2023-06-14T09:03:12;25.10;39.60
64226;DHT22;50545;56.064;26.178;2023-06-14T09:05:43;25.20;43.30
64226;DHT22;50545;56.064;26.178;2023-06-14T09:08:11;25.40;41.40
64226;DHT22;50545;56.064;26.178;2023-06-14T09:10:39;25.50;38.90
64226;DHT22;50545;56.064;26.178;2023-06-14T09:13:07;25.30;39.50
64226;DHT22;50545;56.064;26.178;2023-06-14T09:15:35;25.10;41.30
64226;DHT22;50545;56.064;26.178;2023-06-14T09:18:02;24.90;43.20
64226;DHT22;50545;56.064;26.178;2023-06-14T09:20:31;24.80;42.30
64226;DHT22;50545;56.064;26.178;2023-06-14T09:23:00;24.70;43.20
64226;DHT22;50545;56.064;26.178;2023-06-14T09:25:27;24.50;42.20
64226;DHT22;50545;56.064;26.178;2023-06-14T09:27:57;24.30;45.70
64226;DHT22;50545;56.064;26.178;2023-06-14T09:30:25;24.20;44.40
64226;DHT22;50545;56.064;26.178;2023-06-14T09:32:53;24.10;41.90
64226;DHT22;50545;56.064;26.178;2023-06-14T09:35:20;24.20;45.20
64226;DHT22;50545;56.064;26.178;2023-06-14T09:37:47;24.60;41.00
64226;DHT22;50545;56.064;26.178;2023-06-14T09:40:20;25.10;41.40
64226;DHT22;50545;56.064;26.178;2023-06-14T09:42:47;25.60;43.50
64226;DHT22;50545;56.064;26.178;2023-06-14T09:45:15;26.10;42.90
64226;DHT22;50545;56.064;26.178;2023-06-14T09:47:51;26.60;41.20
64226;DHT22;50545;56.064;26.178;2023-06-14T09:50:34;26.70;39.10
64226;DHT22;50545;56.064;26.178;2023-06-14T09:53:11;26.90;40.60
64226;DHT22;50545;56.064;26.178;2023-06-14T09:55:41;27.10;37.70
64226;DHT22;50545;56.064;26.178;2023-06-14T09:58:10;27.30;38.80
64226;DHT22;50545;56.064;26.178;2023-06-14T10:00:39;27.10;37.90
64226;DHT22;50545;56.064;26.178;2023-06-14T10:03:13;27.00;38.30
64226;DHT22;50545;56.064;26.178;2023-06-14T10:05:43;27.10;37.70
64226;DHT22;50545;56.064;26.178;2023-06-14T10:08:14;27.00;37.60
64226;DHT22;50545;56.064;26.178;2023-06-14T10:10:45;27.20;37.70
64226;DHT22;50545;56.064;26.178;2023-06-14T10:13:14;27.30;35.90
64226;DHT22;50545;56.064;26.178;2023-06-14T10:16:04;27.30;38.10
64226;DHT22;50545;56.064;26.178;2023-06-14T10:23:44;27.50;37.00
64226;DHT22;50545;56.064;26.178;2023-06-14T10:26:25;27.60;37.00
64226;DHT22;50545;56.064;26.178;2023-06-14T10:29:09;27.80;36.90
64226;DHT22;50545;56.064;26.178;2023-06-14T10:31:50;27.60;35.80
64226;DHT22;50545;56.064;26.178;2023-06-14T10:34:25;27.70;36.00
64226;DHT22;50545;56.064;26.178;2023-06-14T10:37:07;27.90;38.50
64226;DHT22;50545;56.064;26.178;2023-06-14T10:39:41;28.10;35.10
64226;DHT22;50545;56.064;26.178;2023-06-14T10:42:09;28.20;36.60
64226;DHT22;50545;56.064;26.178;2023-06-14T10:44:38;28.20;36.80
64226;DHT22;50545;56.064;26.178;2023-06-14T10:47:24;28.20;37.60
64226;DHT22;50545;56.064;26.178;2023-06-14T10:49:57;28.20;35.80
64226;DHT22;50545;56.064;26.178;2023-06-14T10:52:32;28.20;36.00
64226;DHT22;50545;56.064;26.178;2023-06-14T10:55:19;28.10;36.60
64226;DHT22;50545;56.064;26.178;2023-06-14T10:57:52;27.70;35.60
64226;DHT22;50545;56.064;26.178;2023-06-14T11:00:27;27.60;36.10
64226;DHT22;50545;56.064;26.178;2023-06-14T11:05:54;27.60;36.00
64226;DHT22;50545;56.064;26.178;2023-06-14T11:09:03;27.70;37.50
64226;DHT22;50545;56.064;26.178;2023-06-14T11:11:38;27.40;33.90
64226;DHT22;50545;56.064;26.178;2023-06-14T11:14:09;27.40;35.80
64226;DHT22;50545;56.064;26.178;2023-06-14T11:16:37;27.50;35.70
64226;DHT22;50545;56.064;26.178;2023-06-14T11:19:04;27.60;35.10
64226;DHT22;50545;56.064;26.178;2023-06-14T11:21:33;27.60;34.50
64226;DHT22;50545;56.064;26.178;2023-06-14T11:24:00;27.90;35.50
64226;DHT22;50545;56.064;26.178;2023-06-14T11:26:29;28.00;32.30
64226;DHT22;50545;56.064;26.178;2023-06-14T11:28:59;28.00;32.80
64226;DHT22;50545;56.064;26.178;2023-06-14T11:31:27;28.10;34.00
64226;DHT22;50545;56.064;26.178;2023-06-14T11:33:57;28.20;36.20
64226;DHT22;50545;56.064;26.178;2023-06-14T11:36:31;28.30;36.80
64226;DHT22;50545;56.064;26.178;2023-06-14T11:39:04;28.40;37.60
64226;DHT22;50545;56.064;26.178;2023-06-14T11:41:37;28.50;36.90
64226;DHT22;50545;56.064;26.178;2023-06-14T11:44:05;28.70;35.40
64226;DHT22;50545;56.064;26.178;2023-06-14T11:46:33;28.90;34.40
64226;DHT22;50545;56.064;26.178;2023-06-14T11:49:02;28.90;33.60
64226;DHT22;50545;56.064;26.178;2023-06-14T11:51:34;28.70;33.90
64226;DHT22;50545;56.064;26.178;2023-06-14T11:54:03;28.30;33.40
64226;DHT22;50545;56.064;26.178;2023-06-14T11:56:31;28.10;33.80
64226;DHT22;50545;56.064;26.178;2023-06-14T11:58:59;27.80;32.90
64226;DHT22;50545;56.064;26.178;2023-06-14T12:01:29;27.50;33.10
64226;DHT22;50545;56.064;26.178;2023-06-14T12:03:56;27.40;33.50
64226;DHT22;50545;56.064;26.178;2023-06-14T12:06:30;27.40;34.20
64226;DHT22;50545;56.064;26.178;2023-06-14T12:09:04;27.50;33.50
64226;DHT22;50545;56.064;26.178;2023-06-14T12:11:34;27.80;36.10
64226;DHT22;50545;56.064;26.178;2023-06-14T12:14:05;27.80;34.80
64226;DHT22;50545;56.064;26.178;2023-06-14T12:16:33;27.70;35.10
64226;DHT22;50545;56.064;26.178;2023-06-14T12:19:07;27.40;34.70
64226;DHT22;50545;56.064;26.178;2023-06-14T12:21:37;27.20;36.80
64226;DHT22;50545;56.064;26.178;2023-06-14T12:24:05;27.40;37.70
64226;DHT22;50545;56.064;26.178;2023-06-14T12:26:37;27.90;35.30
64226;DHT22;50545;56.064;26.178;2023-06-14T12:29:05;28.30;35.30
64226;DHT22;50545;56.064;26.178;2023-06-14T12:31:33;28.60;34.60
64226;DHT22;50545;56.064;26.178;2023-06-14T12:34:00;28.90;33.50
64226;DHT22;50545;56.064;26.178;2023-06-14T12:36:28;29.20;34.60
64226;DHT22;50545;56.064;26.178;2023-06-14T12:38:56;29.30;34.30
64226;DHT22;50545;56.064;26.178;2023-06-14T12:41:23;29.20;33.70
64226;DHT22;50545;56.064;26.178;2023-06-14T12:43:51;29.10;35.80
64226;DHT22;50545;56.064;26.178;2023-06-14T12:46:19;29.10;34.40
64226;DHT22;50545;56.064;26.178;2023-06-14T12:48:46;29.20;36.00
64226;DHT22;50545;56.064;26.178;2023-06-14T12:51:13;29.60;35.20
64226;DHT22;50545;56.064;26.178;2023-06-14T12:53:40;29.80;32.30
64226;DHT22;50545;56.064;26.178;2023-06-14T12:56:08;29.90;32.10
64226;DHT22;50545;56.064;26.178;2023-06-14T12:58:35;29.90;31.70
64226;DHT22;50545;56.064;26.178;2023-06-14T13:01:02;29.90;31.60
64226;DHT22;50545;56.064;26.178;2023-06-14T13:03:30;29.90;32.50
64226;DHT22;50545;56.064;26.178;2023-06-14T13:05:57;29.70;33.10
64226;DHT22;50545;56.064;26.178;2023-06-14T13:08:24;29.70;32.90
64226;DHT22;50545;56.064;26.178;2023-06-14T13:10:52;30.00;34.90
64226;DHT22;50545;56.064;26.178;2023-06-14T13:13:19;30.20;32.90
64226;DHT22;50545;56.064;26.178;2023-06-14T13:15:46;30.40;33.50
64226;DHT22;50545;56.064;26.178;2023-06-14T13:18:15;30.50;32.20
64226;DHT22;50545;56.064;26.178;2023-06-14T13:20:43;30.70;30.30
64226;DHT22;50545;56.064;26.178;2023-06-14T13:23:11;30.90;31.90
64226;DHT22;50545;56.064;26.178;2023-06-14T13:25:39;31.10;31.80
64226;DHT22;50545;56.064;26.178;2023-06-14T13:28:06;31.40;32.90
64226;DHT22;50545;56.064;26.178;2023-06-14T13:30:34;31.40;31.50
64226;DHT22;50545;56.064;26.178;2023-06-14T13:33:01;31.50;32.10
64226;DHT22;50545;56.064;26.178;2023-06-14T13:35:29;31.80;31.80
64226;DHT22;50545;56.064;26.178;2023-06-14T13:37:56;31.50;30.10
64226;DHT22;50545;56.064;26.178;2023-06-14T13:40:23;30.90;30.40
64226;DHT22;50545;56.064;26.178;2023-06-14T13:42:51;30.50;31.00
64226;DHT22;50545;56.064;26.178;2023-06-14T13:45:18;30.50;31.10
64226;DHT22;50545;56.064;26.178;2023-06-14T13:47:45;30.60;30.40
64226;DHT22;50545;56.064;26.178;2023-06-14T13:50:15;30.70;31.50
64226;DHT22;50545;56.064;26.178;2023-06-14T13:52:43;30.30;31.00
64226;DHT22;50545;56.064;26.178;2023-06-14T13:55:11;30.00;31.70
64226;DHT22;50545;56.064;26.178;2023-06-14T13:57:38;29.90;32.50
64226;DHT22;50545;56.064;26.178;2023-06-14T14:00:06;30.10;31.00
64226;DHT22;50545;56.064;26.178;2023-06-14T14:02:35;30.30;31.90
64226;DHT22;50545;56.064;26.178;2023-06-14T14:05:03;30.50;32.40
64226;DHT22;50545;56.064;26.178;2023-06-14T14:07:30;30.80;30.70
64226;DHT22;50545;56.064;26.178;2023-06-14T14:09:57;31.00;31.10
64226;DHT22;50545;56.064;26.178;2023-06-14T14:12:25;31.20;31.20
64226;DHT22;50545;56.064;26.178;2023-06-14T14:14:52;31.10;30.70
64226;DHT22;50545;56.064;26.178;2023-06-14T14:17:20;31.20;31.70
64226;DHT22;50545;56.064;26.178;2023-06-14T14:19:47;31.00;30.30
64226;DHT22;50545;56.064;26.178;2023-06-14T14:22:14;30.70;31.50
64226;DHT22;50545;56.064;26.178;2023-06-14T14:24:42;30.50;32.10
64226;DHT22;50545;56.064;26.178;2023-06-14T14:27:10;30.20;33.30
64226;DHT22;50545;56.064;26.178;2023-06-14T14:29:37;29.90;32.20
64226;DHT22;50545;56.064;26.178;2023-06-14T14:32:05;29.60;31.80
64226;DHT22;50545;56.064;26.178;2023-06-14T14:34:32;29.30;33.20
64226;DHT22;50545;56.064;26.178;2023-06-14T14:36:59;28.90;32.80
64226;DHT22;50545;56.064;26.178;2023-06-14T14:39:27;28.50;34.80
64226;DHT22;50545;56.064;26.178;2023-06-14T14:41:55;28.20;34.10
64226;DHT22;50545;56.064;26.178;2023-06-14T14:44:22;28.10;36.00
64226;DHT22;50545;56.064;26.178;2023-06-14T14:46:49;28.00;34.60
64226;DHT22;50545;56.064;26.178;2023-06-14T14:49:16;28.00;34.70
64226;DHT22;50545;56.064;26.178;2023-06-14T14:51:44;27.90;38.80
64226;DHT22;50545;56.064;26.178;2023-06-14T14:54:11;27.90;36.30
64226;DHT22;50545;56.064;26.178;2023-06-14T14:56:38;27.70;38.00
64226;DHT22;50545;56.064;26.178;2023-06-14T14:59:06;27.60;37.80
64226;DHT22;50545;56.064;26.178;2023-06-14T15:01:33;27.60;37.60
64226;DHT22;50545;56.064;26.178;2023-06-14T15:04:00;27.60;37.90
64226;DHT22;50545;56.064;26.178;2023-06-14T15:06:28;27.70;37.60
64226;DHT22;50545;56.064;26.178;2023-06-14T15:08:56;27.60;35.80
64226;DHT22;50545;56.064;26.178;2023-06-14T15:11:24;27.50;37.10
64226;DHT22;50545;56.064;26.178;2023-06-14T15:13:51;27.50;37.10
64226;DHT22;50545;56.064;26.178;2023-06-14T15:16:19;27.40;37.90
64226;DHT22;50545;56.064;26.178;2023-06-14T15:18:46;27.30;37.50
64226;DHT22;50545;56.064;26.178;2023-06-14T15:21:14;27.20;36.60
64226;DHT22;50545;56.064;26.178;2023-06-14T15:23:41;27.30;36.60
64226;DHT22;50545;56.064;26.178;2023-06-14T15:26:08;27.30;35.30
64226;DHT22;50545;56.064;26.178;2023-06-14T15:28:36;27.30;36.50
64226;DHT22;50545;56.064;26.178;2023-06-14T15:31:03;27.30;37.40
64226;DHT22;50545;56.064;26.178;2023-06-14T15:33:30;27.40;37.40
64226;DHT22;50545;56.064;26.178;2023-06-14T15:35:58;27.40;37.60
64226;DHT22;50545;56.064;26.178;2023-06-14T15:38:25;27.40;39.70
64226;DHT22;50545;56.064;26.178;2023-06-14T15:40:53;27.20;38.60